• Join FlightAware (Why Join?)
  • Login
  • US Flag 
11:10PM EDT


 

Airport Tracker/Info


-or-


 

Live Flight TrackerFlight Track Log ✈ EJA922 ✈ 29-Sep-2013 ✈ KMDW - KUES

Flight Track Log - Related Links

Times and Time Zones

All times are in EDT time to prevent confusion due to time zone crossing. See the EJA922 flight status page for this flight to view local times or setup timezone preferences in your user account.

Time Position Orientation Groundspeed Altitude Reporting Facility
EDT Latitude Longitude Course Direction KTS MPH feet Rate Location/Type
02:24PM 41.8000 -87.7167 90° East 204 235 2,600  Level Chicago TRACON
02:25PM 41.8000 -87.6167 90° East 248 285 4,000 780 Climbing Chicago TRACON
02:26PM 41.8378 -87.5814 35° Northeast 241 277 4,000  Level Chicago Center
02:27PM 41.8933 -87.5231 38° Northeast 250 288 4,000  Level Chicago Center
02:28PM 41.9475 -87.4658 38° Northeast 250 288 4,000 360 Level Chicago Center
02:29PM 42.0136 -87.4875 346° North 262 302 4,800 960 Climbing Chicago Center
02:30PM 42.0794 -87.5239 338° Northwest 260 299 6,000 540 Climbing Chicago Center
02:31PM 42.1517 -87.5642 338° Northwest 280 322 6,000  Level Chicago Center
02:32PM 42.2350 -87.6133 336° Northwest 274 315 6,000 -180 Level Chicago Center
02:33PM 42.3042 -87.6539 337° Northwest 273 314 5,700 -360 Descending Chicago Center
02:34PM 42.3694 -87.6919 337° Northwest 271 312 5,300 120 Descending Chicago Center
02:35PM 42.4506 -87.7408 336° Northwest 266 306 6,000 300 Climbing Chicago Center
02:36PM 42.5189 -87.7811 337° Northwest 268 308 6,000  Level Chicago Center
02:37PM 42.5867 -87.8236 335° Northwest 269 310 6,000  Level Chicago Center
02:38PM 42.6461 -87.8814 324° Northwest 270 311 6,000  Level Chicago Center
02:39PM 42.6919 -87.9636 307° West 273 314 6,000  Level Chicago Center
02:40PM 42.7469 -88.0292 319° Northwest 267 307 6,000 -240 Level Chicago Center
02:41PM 42.8333 -88.0583 346° North 261 300 5,600 -840 Descending Chicago Center
02:42PM 42.9086 -88.0719 352° North 270 311 4,300 -1,380 Descending Chicago Center
02:43PM 42.9694 -88.1111 335° Northwest 252 290 2,800 -1,020 Descending Chicago Center
02:44PM 43.0203 -88.1472 333° Northwest 226 260 2,200 -660 Descending Chicago Center
02:45PM 43.0339 -88.1928 292° West 171 197 1,500 -540 Descending Chicago Center
02:46PM 43.0392 -88.2514 277° West 156 180 1,200 -300 Descending Chicago Center
02:48PM 43.0333 -88.2333 289° West  Level FlightAware Approximate